Time;durP1;ratioP1;P1;durP2;ratioP2;P2;SDS_P1;SDS_P2;PMS_P1;PMS_P2;Temp;Humidity;BMP_temperature;BMP_pressure;BME280_temperature;BME280_humidity;BME280_pressure;Samples;Min_cycle;Max_cycle;Signal;HPM_P1;HPM_P2
2023/09/28 04:01:48;;;;;;;;;;;16.80;99.90;;;;;;5306566;23;19921;-70
2023/09/28 04:04:13;;;;;;;;;;;16.80;99.90;;;;;;4973629;28;20317;-70
2023/09/28 04:06:39;;;;;;;;;;;16.70;99.90;;;;;;4975386;28;19910;-70
2023/09/28 04:09:07;;;;;;;;;;;16.90;99.90;;;;;;4973665;28;19957;-68
2023/09/28 04:11:33;;;;;;;;;;;16.80;99.90;;;;;;4973538;28;20447;-70
2023/09/28 04:13:58;;;;;;;;;;;16.60;99.90;;;;;;4988839;23;19949;-72
2023/09/28 04:16:24;;;;;;;;;;;16.50;99.90;;;;;;4973761;28;19905;-68
2023/09/28 04:18:49;;;;;;;;;;;16.40;99.90;;;;;;4976058;28;19913;-73
2023/09/28 04:21:14;;;;;;;;;;;16.50;99.90;;;;;;4974622;28;19910;-71
2023/09/28 04:23:40;;;;;;;;;;;16.40;99.90;;;;;;4974648;28;19906;-70
2023/09/28 04:26:05;;;;;;;;;;;16.50;99.90;;;;;;4975344;28;19997;-67
2023/09/28 04:28:31;;;;;;;;;;;16.40;99.90;;;;;;4976917;28;19906;-70
2023/09/28 04:30:56;;;;;;;;;;;16.50;99.90;;;;;;4975604;28;20406;-70
2023/09/28 04:33:22;;;;;;;;;;;16.50;99.90;;;;;;4975355;28;20328;-69
2023/09/28 04:35:49;;;;;;;;;;;16.50;99.90;;;;;;4976808;28;19941;-71
2023/09/28 04:38:14;;;;;;;;;;;16.40;99.90;;;;;;4977606;28;20357;-69
2023/09/28 04:40:40;;;;;;;;;;;16.30;99.90;;;;;;4977122;28;19910;-71
2023/09/28 04:43:06;;;;;;;;;;;16.20;99.90;;;;;;4976925;28;19980;-71
2023/09/28 04:45:31;;;;;;;;;;;16.10;99.90;;;;;;4978631;28;20277;-70
2023/09/28 04:47:58;;;;;;;;;;;16.10;99.90;;;;;;4977597;28;19917;-71
2023/09/28 04:50:23;;;;;;;;;;;16.10;99.90;;;;;;4977589;28;19906;-70
2023/09/28 04:52:49;;;;;;;;;;;16.20;99.90;;;;;;4977844;28;19910;-70
2023/09/28 04:55:14;;;;;;;;;;;16.20;99.90;;;;;;4978617;28;20356;-71
2023/09/28 04:57:40;;;;;;;;;;;16.20;99.90;;;;;;4977083;28;20352;-70
2023/09/28 05:00:06;;;;;;;;;;;16.30;99.90;;;;;;4975495;28;19910;-71
2023/09/28 05:02:32;;;;;;;;;;;16.30;99.90;;;;;;4979065;28;19906;-71
2023/09/28 05:04:57;;;;;;;;;;;16.20;99.90;;;;;;4985397;28;20375;-70
2023/09/28 05:07:23;;;;;;;;;;;16.10;99.90;;;;;;4988819;28;19906;-67
2023/09/28 05:09:49;;;;;;;;;;;16.20;99.90;;;;;;4984540;28;19917;-66
2023/09/28 05:12:14;;;;;;;;;;;16.20;99.90;;;;;;4979273;28;19913;-71
2023/09/28 05:14:41;;;;;;;;;;;16.20;99.90;;;;;;4978095;28;19976;-71
2023/09/28 05:17:06;;;;;;;;;;;16.20;99.90;;;;;;4978361;28;19961;-67
2023/09/28 05:19:32;;;;;;;;;;;16.20;99.90;;;;;;4977709;28;19910;-67
2023/09/28 05:21:57;;;;;;;;;;;16.30;99.90;;;;;;4976625;28;19906;-68
2023/09/28 05:24:23;;;;;;;;;;;16.20;99.90;;;;;;4976480;28;19993;-68
2023/09/28 05:26:48;;;;;;;;;;;16.10;99.90;;;;;;4976394;28;19917;-67
2023/09/28 05:29:14;;;;;;;;;;;16.00;99.90;;;;;;4977436;28;19907;-68
2023/09/28 05:31:40;;;;;;;;;;;15.80;99.90;;;;;;4977449;28;19906;-67
2023/09/28 05:34:06;;;;;;;;;;;15.80;99.90;;;;;;4976037;28;19907;-67
2023/09/28 05:36:31;;;;;;;;;;;15.80;99.90;;;;;;4975993;28;19905;-69
2023/09/28 05:38:56;;;;;;;;;;;15.90;99.90;;;;;;4977209;28;19953;-68
2023/09/28 05:41:22;;;;;;;;;;;15.80;99.90;;;;;;4977208;28;19906;-68
2023/09/28 05:43:48;;;;;;;;;;;15.80;99.90;;;;;;4977520;28;19913;-68
2023/09/28 05:46:14;;;;;;;;;;;15.80;99.90;;;;;;4976516;28;19929;-68
2023/09/28 05:48:40;;;;;;;;;;;15.90;99.90;;;;;;4977523;28;20411;-67
2023/09/28 05:51:05;;;;;;;;;;;15.90;99.90;;;;;;4977702;28;19940;-67
2023/09/28 05:53:31;;;;;;;;;;;15.90;99.90;;;;;;4977458;28;19906;-67
2023/09/28 05:55:56;;;;;;;;;;;15.90;99.90;;;;;;4976662;28;19910;-68
2023/09/28 05:58:21;;;;;;;;;;;15.90;99.90;;;;;;4976205;28;20040;-68
2023/09/28 06:00:47;;;;;;;;;;;15.90;99.90;;;;;;4977269;28;20017;-68
2023/09/28 06:03:13;;;;;;;;;;;15.80;99.90;;;;;;4977572;28;19973;-68
2023/09/28 06:05:40;;;;;;;;;;;15.90;99.90;;;;;;4977619;28;19910;-67
2023/09/28 06:08:05;;;;;;;;;;;15.90;99.90;;;;;;4977317;28;19906;-67
2023/09/28 06:10:31;;;;;;;;;;;15.90;99.90;;;;;;4977103;28;20008;-67
2023/09/28 06:12:57;;;;;;;;;;;15.90;99.90;;;;;;4977220;28;20282;-67
2023/09/28 06:15:23;;;;;;;;;;;15.80;99.90;;;;;;4977226;28;19937;-68
2023/09/28 06:17:48;;;;;;;;;;;15.80;99.90;;;;;;4976115;28;19917;-68
2023/09/28 06:20:14;;;;;;;;;;;15.80;99.90;;;;;;4976802;28;20273;-68
2023/09/28 06:22:40;;;;;;;;;;;15.70;99.90;;;;;;4975850;28;19906;-67
2023/09/28 06:25:07;;;;;;;;;;;15.70;99.90;;;;;;4976903;28;19906;-69
2023/09/28 06:27:33;;;;;;;;;;;15.80;99.90;;;;;;4976816;28;20363;-67
2023/09/28 06:29:58;;;;;;;;;;;15.90;99.90;;;;;;4976890;28;19906;-68
2023/09/28 06:32:24;;;;;;;;;;;15.80;99.90;;;;;;4976639;28;19948;-68
2023/09/28 06:34:50;;;;;;;;;;;15.90;99.90;;;;;;4975115;28;19906;-68
2023/09/28 06:37:16;;;;;;;;;;;15.90;99.90;;;;;;4976967;28;20041;-68
2023/09/28 06:39:42;;;;;;;;;;;15.90;99.90;;;;;;4976481;28;19910;-67
2023/09/28 06:42:07;;;;;;;;;;;16.00;99.90;;;;;;4976516;28;20335;-66
2023/09/28 06:44:34;;;;;;;;;;;16.00;99.90;;;;;;4975340;28;19906;-68
2023/09/28 06:47:00;;;;;;;;;;;16.10;99.90;;;;;;4974301;28;19905;-69
2023/09/28 06:49:26;;;;;;;;;;;16.20;99.90;;;;;;4976433;28;19912;-68
2023/09/28 06:51:52;;;;;;;;;;;16.30;99.90;;;;;;4976842;28;20005;-69
2023/09/28 06:54:19;;;;;;;;;;;16.40;99.90;;;;;;4977540;28;20264;-69
2023/09/28 06:56:48;;;;;;;;;;;16.50;99.90;;;;;;4976516;28;20364;-66
2023/09/28 06:59:13;;;;;;;;;;;16.50;99.90;;;;;;4977055;28;19928;-69
2023/09/28 07:01:39;;;;;;;;;;;16.60;99.90;;;;;;4976965;28;19906;-69
2023/09/28 07:04:06;;;;;;;;;;;16.50;99.90;;;;;;4976614;28;20000;-71
2023/09/28 07:06:33;;;;;;;;;;;16.60;99.90;;;;;;4975757;28;19906;-71
2023/09/28 07:08:59;;;;;;;;;;;16.70;99.90;;;;;;4976117;28;19906;-70
2023/09/28 07:11:26;;;;;;;;;;;16.70;99.90;;;;;;4976297;28;19913;-71
2023/09/28 07:13:54;;;;;;;;;;;16.70;99.90;;;;;;4977346;28;20237;-69
2023/09/28 07:16:20;;;;;;;;;;;16.80;99.90;;;;;;4977802;28;19912;-71
2023/09/28 07:18:45;;;;;;;;;;;16.80;99.90;;;;;;4976797;28;19988;-70
2023/09/28 07:21:10;;;;;;;;;;;16.80;99.90;;;;;;4978970;28;20275;-71
2023/09/28 07:23:38;;;;;;;;;;;16.80;99.90;;;;;;4978526;28;19910;-70
2023/09/28 07:26:17;;;;;;;;;;;16.90;99.90;;;;;;4977044;28;19906;-71
2023/09/28 07:28:45;;;;;;;;;;;16.90;99.90;;;;;;4975680;28;19906;-71
2023/09/28 07:31:11;;;;;;;;;;;17.00;99.90;;;;;;4977433;28;20005;-71
2023/09/28 07:33:37;;;;;;;;;;;17.00;99.90;;;;;;4977160;28;19938;-70
2023/09/28 07:36:05;;;;;;;;;;;17.10;99.90;;;;;;4977780;28;19953;-70
2023/09/28 07:38:32;;;;;;;;;;;17.10;99.90;;;;;;4977090;28;19905;-69
2023/09/28 07:40:58;;;;;;;;;;;17.30;99.90;;;;;;4977574;28;19910;-70
2023/09/28 07:43:24;;;;;;;;;;;17.40;99.90;;;;;;4977744;28;19913;-69
2023/09/28 07:45:49;;;;;;;;;;;17.50;99.90;;;;;;4976812;28;20379;-69
2023/09/28 07:48:15;;;;;;;;;;;17.60;99.90;;;;;;4975744;28;20356;-68
2023/09/28 07:50:41;;;;;;;;;;;17.80;99.90;;;;;;4975989;28;19917;-69
2023/09/28 07:53:06;;;;;;;;;;;18.00;99.90;;;;;;4975752;28;19906;-68
2023/09/28 07:55:31;;;;;;;;;;;18.00;99.90;;;;;;4976350;28;19909;-69
2023/09/28 07:57:58;;;;;;;;;;;18.10;99.90;;;;;;4975155;28;19910;-70
2023/09/28 08:00:23;;;;;;;;;;;18.10;99.90;;;;;;4974851;28;19917;-70
2023/09/28 08:02:49;;;;;;;;;;;18.30;99.90;;;;;;4975271;28;19910;-70
2023/09/28 08:05:14;;;;;;;;;;;18.30;99.90;;;;;;4974817;28;19956;-70
2023/09/28 08:07:41;;;;;;;;;;;18.40;99.90;;;;;;4974789;28;19906;-70
2023/09/28 08:10:09;;;;;;;;;;;18.60;99.90;;;;;;4975976;28;19913;-70
2023/09/28 08:12:35;;;;;;;;;;;18.60;99.90;;;;;;4981445;28;19906;-70
2023/09/28 08:15:00;;;;;;;;;;;18.60;99.90;;;;;;4980503;28;20355;-71
2023/09/28 08:17:26;;;;;;;;;;;18.70;99.90;;;;;;4976056;28;19906;-70
2023/09/28 08:19:51;;;;;;;;;;;18.80;99.90;;;;;;4974506;28;19910;-70
2023/09/28 08:22:17;;;;;;;;;;;19.00;99.90;;;;;;4974686;28;20335;-70
2023/09/28 08:24:43;;;;;;;;;;;19.00;99.90;;;;;;4974497;28;20360;-70
2023/09/28 08:27:09;;;;;;;;;;;19.20;99.90;;;;;;4974651;28;19952;-70
2023/09/28 08:29:35;;;;;;;;;;;19.30;99.90;;;;;;4975230;28;19906;-71
2023/09/28 08:32:01;;;;;;;;;;;19.30;99.90;;;;;;4975137;28;19972;-70
2023/09/28 08:34:26;;;;;;;;;;;19.30;99.90;;;;;;4973940;28;20284;-70
2023/09/28 08:36:52;;;;;;;;;;;19.40;99.90;;;;;;4975498;28;20403;-70
2023/09/28 08:39:17;;;;;;;;;;;19.50;99.90;;;;;;4976733;28;20022;-70
2023/09/28 08:41:44;;;;;;;;;;;19.50;99.90;;;;;;4977041;28;19906;-70
2023/09/28 08:44:10;;;;;;;;;;;19.70;99.90;;;;;;4978795;28;19945;-70
2023/09/28 08:46:39;;;;;;;;;;;19.70;99.90;;;;;;4976213;28;19910;-72
2023/09/28 08:49:05;;;;;;;;;;;19.70;99.90;;;;;;4978793;28;19997;-70
2023/09/28 08:51:31;;;;;;;;;;;19.80;99.90;;;;;;4976169;28;20457;-70
2023/09/28 08:54:03;;;;;;;;;;;20.00;99.90;;;;;;4975106;28;19906;-70
2023/09/28 08:56:29;;;;;;;;;;;21.00;99.90;;;;;;4976501;28;19913;-70
2023/09/28 08:58:57;;;;;;;;;;;23.30;99.90;;;;;;4978681;28;20000;-70
2023/09/28 09:01:23;;;;;;;;;;;25.70;99.90;;;;;;4978468;28;19917;-70
2023/09/28 09:03:50;;;;;;;;;;;27.40;96.90;;;;;;4975644;28;19906;-70
2023/09/28 09:06:15;;;;;;;;;;;28.00;95.20;;;;;;4974292;28;19906;-70
2023/09/28 09:08:44;;;;;;;;;;;27.70;94.50;;;;;;4974046;28;19929;-70
2023/09/28 09:11:11;;;;;;;;;;;28.00;94.30;;;;;;4976910;28;19905;-71
2023/09/28 09:13:49;;;;;;;;;;;28.10;93.80;;;;;;4977568;28;20001;-70
2023/09/28 09:16:15;;;;;;;;;;;27.80;93.70;;;;;;4976600;28;20031;-70
2023/09/28 09:18:41;;;;;;;;;;;27.20;94.30;;;;;;4977739;28;19906;-69
2023/09/28 09:21:07;;;;;;;;;;;27.30;94.30;;;;;;4976653;28;20000;-70
2023/09/28 09:23:33;;;;;;;;;;;28.10;93.80;;;;;;4977321;28;20249;-69
2023/09/28 09:25:58;;;;;;;;;;;28.90;92.70;;;;;;4976754;28;19913;-71
2023/09/28 09:28:32;;;;;;;;;;;29.10;92.10;;;;;;4977811;28;19906;-70
2023/09/28 09:30:58;;;;;;;;;;;28.70;92.00;;;;;;4977404;28;20392;-69
2023/09/28 09:33:24;;;;;;;;;;;28.00;92.20;;;;;;4976323;28;20008;-70
2023/09/28 09:35:52;;;;;;;;;;;26.80;93.30;;;;;;4976338;28;19917;-69
2023/09/28 09:38:27;;;;;;;;;;;26.10;94.30;;;;;;4977369;28;20356;-69
2023/09/28 09:41:00;;;;;;;;;;;25.70;94.90;;;;;;4976590;28;19976;-70
2023/09/28 09:43:29;;;;;;;;;;;25.80;94.90;;;;;;4976104;28;19913;-69
2023/09/28 09:45:54;;;;;;;;;;;26.10;94.40;;;;;;4977403;28;19949;-70
2023/09/28 09:48:21;;;;;;;;;;;26.70;94.10;;;;;;4977601;28;19913;-69
2023/09/28 09:50:49;;;;;;;;;;;27.90;93.00;;;;;;4977090;28;19969;-70
2023/09/28 09:53:15;;;;;;;;;;;29.60;91.30;;;;;;4977427;28;19913;-70
2023/09/28 09:55:42;;;;;;;;;;;30.70;89.70;;;;;;4977225;28;19906;-70
2023/09/28 09:58:10;;;;;;;;;;;31.20;88.40;;;;;;4977103;28;19910;-68
2023/09/28 10:00:37;;;;;;;;;;;31.60;86.90;;;;;;4978317;28;19917;-68
2023/09/28 10:03:04;;;;;;;;;;;32.10;85.40;;;;;;4977335;28;20287;-68
2023/09/28 10:05:32;;;;;;;;;;;31.80;84.40;;;;;;4977234;28;19949;-68
2023/09/28 10:07:58;;;;;;;;;;;32.70;82.90;;;;;;4977128;28;20284;-68
2023/09/28 10:10:27;;;;;;;;;;;33.40;80.50;;;;;;4977595;28;19906;-67
2023/09/28 10:12:53;;;;;;;;;;;34.20;79.30;;;;;;4977647;28;19965;-68
2023/09/28 10:15:19;;;;;;;;;;;34.50;76.80;;;;;;4990659;23;20296;-69
2023/09/28 10:17:44;;;;;;;;;;;34.70;76.40;;;;;;4976670;28;19906;-68
2023/09/28 10:20:13;;;;;;;;;;;34.90;75.80;;;;;;4976619;28;19914;-68
2023/09/28 10:22:43;;;;;;;;;;;35.30;74.60;;;;;;4975311;28;19906;-68
2023/09/28 10:25:11;;;;;;;;;;;35.60;73.10;;;;;;4976322;28;19914;-68
2023/09/28 10:27:36;;;;;;;;;;;36.20;72.30;;;;;;4976502;28;19909;-68
2023/09/28 10:30:20;;;;;;;;;;;36.50;71.60;;;;;;4976326;28;19964;-68
2023/09/28 10:32:46;;;;;;;;;;;36.80;70.80;;;;;;4976459;28;19948;-68
2023/09/28 10:35:13;;;;;;;;;;;37.50;68.80;;;;;;4974932;28;19932;-68
2023/09/28 10:37:38;;;;;;;;;;;37.70;68.20;;;;;;4976081;28;19913;-68
2023/09/28 10:40:06;;;;;;;;;;;38.00;67.20;;;;;;4976388;28;19910;-69
2023/09/28 10:42:32;;;;;;;;;;;37.70;66.70;;;;;;4976335;28;20036;-68
2023/09/28 10:44:58;;;;;;;;;;;37.50;67.00;;;;;;4976040;28;20013;-69
2023/09/28 10:47:23;;;;;;;;;;;37.50;66.70;;;;;;4976180;28;19951;-68
2023/09/28 10:49:57;;;;;;;;;;;38.00;66.20;;;;;;4976191;28;19917;-68
2023/09/28 10:52:23;;;;;;;;;;;38.10;65.20;;;;;;4976188;28;20348;-68
2023/09/28 10:54:49;;;;;;;;;;;38.30;64.90;;;;;;4975585;28;19910;-69
2023/09/28 10:57:14;;;;;;;;;;;38.00;64.40;;;;;;4975676;28;19910;-69
2023/09/28 10:59:41;;;;;;;;;;;36.20;65.10;;;;;;4975701;28;19957;-69
2023/09/28 11:02:07;;;;;;;;;;;34.20;67.70;;;;;;4975702;28;19906;-68
2023/09/28 11:04:36;;;;;;;;;;;32.20;70.20;;;;;;4975431;28;19906;-68
2023/09/28 11:07:03;;;;;;;;;;;30.90;72.40;;;;;;4975533;28;19997;-67
2023/09/28 11:09:29;;;;;;;;;;;30.10;74.00;;;;;;4975436;28;20432;-68
2023/09/28 11:11:55;;;;;;;;;;;29.40;74.10;;;;;;4975836;28;19910;-67
2023/09/28 11:14:21;;;;;;;;;;;28.50;74.60;;;;;;4975468;28;19953;-68
2023/09/28 11:16:49;;;;;;;;;;;28.00;76.20;;;;;;4975998;28;19949;-68
2023/09/28 11:19:14;;;;;;;;;;;27.50;77.60;;;;;;4975526;28;20000;-69
2023/09/28 11:21:41;;;;;;;;;;;27.10;78.90;;;;;;4975514;28;19997;-68
2023/09/28 11:24:07;;;;;;;;;;;26.70;79.10;;;;;;4975266;28;19913;-69
2023/09/28 11:26:32;;;;;;;;;;;26.40;80.20;;;;;;4975120;28;19910;-68
2023/09/28 11:28:58;;;;;;;;;;;26.30;81.80;;;;;;4974938;28;19906;-69
2023/09/28 11:31:25;;;;;;;;;;;26.10;81.60;;;;;;4974150;28;19913;-69
2023/09/28 11:33:50;;;;;;;;;;;25.90;82.30;;;;;;4974856;28;19906;-67
2023/09/28 11:36:17;;;;;;;;;;;25.70;82.10;;;;;;4975261;28;19912;-68
2023/09/28 11:38:43;;;;;;;;;;;25.60;82.80;;;;;;4975152;28;19906;-67
2023/09/28 11:41:08;;;;;;;;;;;25.60;83.60;;;;;;4974897;28;19980;-68
2023/09/28 11:43:47;;;;;;;;;;;25.60;82.60;;;;;;4975309;28;19945;-68
2023/09/28 11:46:20;;;;;;;;;;;25.60;83.20;;;;;;4975330;28;20336;-69
2023/09/28 11:48:45;;;;;;;;;;;25.60;84.00;;;;;;4974669;28;19980;-68
2023/09/28 11:51:14;;;;;;;;;;;25.60;84.70;;;;;;4974912;28;19906;-68
2023/09/28 11:53:41;;;;;;;;;;;25.60;84.70;;;;;;4973262;28;19945;-67
2023/09/28 11:56:07;;;;;;;;;;;25.60;82.60;;;;;;4973203;28;19928;-68
2023/09/28 11:58:34;;;;;;;;;;;25.60;83.20;;;;;;4974723;28;19906;-64
2023/09/28 12:00:59;;;;;;;;;;;25.60;84.00;;;;;;4974505;28;19914;-68
2023/09/28 12:03:25;;;;;;;;;;;25.70;83.70;;;;;;4974510;28;19981;-68
2023/09/28 12:05:52;;;;;;;;;;;25.70;84.30;;;;;;4974520;28;20006;-68
2023/09/28 12:08:17;;;;;;;;;;;25.80;83.40;;;;;;4973209;28;19913;-67
2023/09/28 12:10:43;;;;;;;;;;;25.80;82.60;;;;;;4974559;28;19906;-67
2023/09/28 12:13:08;;;;;;;;;;;25.90;83.20;;;;;;4974520;28;19906;-68
2023/09/28 12:15:34;;;;;;;;;;;25.90;82.40;;;;;;4973072;28;20000;-68
2023/09/28 12:17:59;;;;;;;;;;;25.80;82.00;;;;;;4974106;28;20016;-68
2023/09/28 12:20:25;;;;;;;;;;;25.90;82.40;;;;;;4974636;28;20005;-68
2023/09/28 12:22:51;;;;;;;;;;;26.20;81.50;;;;;;4974584;28;19906;-67
2023/09/28 12:25:18;;;;;;;;;;;26.20;81.50;;;;;;4974593;28;19906;-68
2023/09/28 12:27:44;;;;;;;;;;;26.10;81.80;;;;;;4974584;28;19996;-68
2023/09/28 12:30:12;;;;;;;;;;;26.10;82.10;;;;;;4973377;28;20332;-68
2023/09/28 12:32:38;;;;;;;;;;;26.30;81.40;;;;;;4974948;28;19906;-68
2023/09/28 12:35:06;;;;;;;;;;;26.30;81.30;;;;;;4974950;28;19906;-66
2023/09/28 12:37:36;;;;;;;;;;;26.20;81.50;;;;;;4974636;28;19906;-67
2023/09/28 12:40:04;;;;;;;;;;;26.20;82.20;;;;;;4972801;28;19910;-66
2023/09/28 12:42:29;;;;;;;;;;;26.10;81.60;;;;;;4974021;28;20008;-66
2023/09/28 12:44:58;;;;;;;;;;;26.30;81.30;;;;;;4974557;28;20380;-66
2023/09/28 12:47:24;;;;;;;;;;;26.30;81.80;;;;;;4976518;28;19906;-66
2023/09/28 12:49:50;;;;;;;;;;;26.30;81.80;;;;;;4977565;28;20445;-67
2023/09/28 12:52:16;;;;;;;;;;;26.40;81.70;;;;;;4977984;28;19968;-65
2023/09/28 12:54:44;;;;;;;;;;;26.30;81.70;;;;;;4977926;28;20428;-67
2023/09/28 12:57:10;;;;;;;;;;;26.30;82.40;;;;;;4978314;28;19917;-66
2023/09/28 12:59:36;;;;;;;;;;;26.40;82.80;;;;;;4977314;28;19909;-68
2023/09/28 13:02:05;;;;;;;;;;;26.40;83.00;;;;;;4978115;28;19925;-67
2023/09/28 13:04:34;;;;;;;;;;;26.50;82.30;;;;;;4976502;28;19912;-67
2023/09/28 13:06:59;;;;;;;;;;;26.50;81.60;;;;;;4977188;28;19910;-67
2023/09/28 13:09:29;;;;;;;;;;;26.50;82.10;;;;;;4977767;28;19906;-67
2023/09/28 13:11:55;;;;;;;;;;;26.50;82.40;;;;;;4977919;28;19945;-66
2023/09/28 13:14:25;;;;;;;;;;;26.60;83.00;;;;;;4977623;28;19957;-67
2023/09/28 13:16:54;;;;;;;;;;;26.70;82.30;;;;;;4977405;28;19906;-66
2023/09/28 13:19:25;;;;;;;;;;;26.80;81.40;;;;;;4976304;28;19909;-66
2023/09/28 13:21:54;;;;;;;;;;;26.90;81.10;;;;;;4978707;28;19906;-66
2023/09/28 13:24:21;;;;;;;;;;;26.80;81.10;;;;;;4976883;28;19916;-66
2023/09/28 13:26:47;;;;;;;;;;;26.80;80.70;;;;;;4977750;28;19910;-66
2023/09/28 13:29:13;;;;;;;;;;;26.70;81.90;;;;;;4976586;28;19956;-67
2023/09/28 13:31:42;;;;;;;;;;;26.70;82.60;;;;;;4977156;28;19934;-64
2023/09/28 13:34:10;;;;;;;;;;;26.80;81.70;;;;;;4977265;28;19996;-65
2023/09/28 13:36:36;;;;;;;;;;;26.90;81.10;;;;;;4976236;28;19913;-67
2023/09/28 13:39:04;;;;;;;;;;;26.80;81.60;;;;;;4976276;28;19905;-66
2023/09/28 13:41:30;;;;;;;;;;;26.80;81.90;;;;;;4975632;28;19917;-66
2023/09/28 13:43:56;;;;;;;;;;;26.80;81.20;;;;;;4977544;28;19910;-69
2023/09/28 13:46:22;;;;;;;;;;;26.80;81.80;;;;;;4977183;28;19930;-67
2023/09/28 13:48:48;;;;;;;;;;;26.80;82.50;;;;;;4976074;28;19906;-67
2023/09/28 13:51:13;;;;;;;;;;;26.70;82.90;;;;;;4976115;28;19913;-67
2023/09/28 13:53:39;;;;;;;;;;;26.60;83.30;;;;;;4975666;28;19964;-67
2023/09/28 13:56:06;;;;;;;;;;;26.50;83.60;;;;;;4974763;28;19910;-67
2023/09/28 13:58:32;;;;;;;;;;;26.40;83.80;;;;;;4957678;28;19910;-67
2023/09/28 14:00:58;;;;;;;;;;;26.40;82.60;;;;;;4957352;28;19953;-66
2023/09/28 14:03:24;;;;;;;;;;;26.40;83.00;;;;;;4957811;28;20277;-69
2023/09/28 14:05:51;;;;;;;;;;;26.70;82.70;;;;;;4956597;28;20001;-69
2023/09/28 14:08:17;;;;;;;;;;;27.00;81.90;;;;;;4957513;28;19938;-67
2023/09/28 14:10:43;;;;;;;;;;;27.10;81.40;;;;;;4957388;28;19906;-67
2023/09/28 14:13:08;;;;;;;;;;;27.00;81.60;;;;;;4957285;28;19906;-67
2023/09/28 14:15:34;;;;;;;;;;;27.00;81.40;;;;;;4957066;29;19937;-67
2023/09/28 14:17:59;;;;;;;;;;;26.80;81.10;;;;;;4957011;29;19906;-67
2023/09/28 14:20:25;;;;;;;;;;;26.70;81.60;;;;;;4964874;28;19913;-67
2023/09/28 14:22:51;;;;;;;;;;;26.70;82.50;;;;;;4976346;28;19906;-67
2023/09/28 14:25:17;;;;;;;;;;;26.60;83.10;;;;;;4976284;28;20019;-68
2023/09/28 14:27:45;;;;;;;;;;;26.50;83.40;;;;;;4975595;28;20377;-68
2023/09/28 14:30:12;;;;;;;;;;;26.60;83.90;;;;;;4976520;28;20407;-68
2023/09/28 14:32:37;;;;;;;;;;;26.40;85.70;;;;;;4976000;28;19906;-67
2023/09/28 14:35:04;;;;;;;;;;;26.30;84.20;;;;;;4975858;28;19906;-67
2023/09/28 14:37:32;;;;;;;;;;;26.10;85.20;;;;;;4973699;28;19922;-67
2023/09/28 14:39:57;;;;;;;;;;;26.10;86.20;;;;;;4964256;28;19915;-67
2023/09/28 14:42:23;;;;;;;;;;;25.90;86.10;;;;;;4962449;28;19910;-66
2023/09/28 14:44:49;;;;;;;;;;;25.80;86.80;;;;;;4967625;28;19914;-66
2023/09/28 14:47:15;;;;;;;;;;;25.70;86.70;;;;;;4963532;28;19957;-67
2023/09/28 14:49:40;;;;;;;;;;;25.60;87.00;;;;;;4968187;28;19914;-67
2023/09/28 14:52:06;;;;;;;;;;;25.50;87.60;;;;;;4974362;28;19945;-66
2023/09/28 14:54:32;;;;;;;;;;;25.40;87.80;;;;;;4970616;28;20360;-66
2023/09/28 14:56:57;;;;;;;;;;;25.30;88.10;;;;;;4960107;28;19914;-66
2023/09/28 14:59:23;;;;;;;;;;;25.20;88.60;;;;;;4970822;28;19907;-67
2023/09/28 15:01:48;;;;;;;;;;;25.20;88.80;;;;;;4964068;28;19956;-66
2023/09/28 15:04:14;;;;;;;;;;;25.10;88.00;;;;;;4962906;28;19914;-66
2023/09/28 15:06:40;;;;;;;;;;;25.00;87.80;;;;;;4971674;28;19921;-66
2023/09/28 15:09:05;;;;;;;;;;;25.00;88.00;;;;;;4969041;28;19906;-67
2023/09/28 15:11:31;;;;;;;;;;;25.00;86.70;;;;;;4971186;28;19968;-66
2023/09/28 15:13:56;;;;;;;;;;;24.90;87.50;;;;;;4963197;28;19961;-67
2023/09/28 15:16:22;;;;;;;;;;;24.90;87.60;;;;;;4963561;28;19907;-67
2023/09/28 15:18:48;;;;;;;;;;;24.80;86.40;;;;;;4961103;28;20436;-67
2023/09/28 15:21:16;;;;;;;;;;;24.80;88.40;;;;;;4970153;28;19910;-67
2023/09/28 15:23:41;;;;;;;;;;;24.80;86.40;;;;;;4965158;28;19960;-65
2023/09/28 15:26:07;;;;;;;;;;;24.70;86.50;;;;;;4955881;28;20407;-66
2023/09/28 15:28:35;;;;;;;;;;;24.70;87.90;;;;;;4971626;28;19906;-68
2023/09/28 15:31:00;;;;;;;;;;;24.60;87.60;;;;;;4962885;28;19997;-68
2023/09/28 15:33:26;;;;;;;;;;;24.60;87.90;;;;;;4964558;28;19937;-67
2023/09/28 15:35:51;;;;;;;;;;;24.60;88.30;;;;;;4965902;28;20265;-66
2023/09/28 15:38:17;;;;;;;;;;;24.50;87.90;;;;;;4971519;28;19913;-66
2023/09/28 15:40:43;;;;;;;;;;;24.50;88.70;;;;;;4960467;28;19983;-67
2023/09/28 15:43:09;;;;;;;;;;;24.40;89.80;;;;;;4966503;28;19910;-67
2023/09/28 15:45:34;;;;;;;;;;;24.30;88.40;;;;;;4967091;28;19906;-66
2023/09/28 15:48:00;;;;;;;;;;;24.30;89.30;;;;;;4959922;28;19913;-65
2023/09/28 15:50:25;;;;;;;;;;;24.30;89.80;;;;;;4972824;28;20368;-67
2023/09/28 15:52:51;;;;;;;;;;;24.30;89.30;;;;;;4969018;28;19961;-66
2023/09/28 15:55:17;;;;;;;;;;;24.30;87.40;;;;;;4964608;28;19929;-67
2023/09/28 15:57:42;;;;;;;;;;;24.20;88.00;;;;;;4964631;28;19957;-66
2023/09/28 16:00:12;;;;;;;;;;;24.10;88.90;;;;;;4965334;28;19910;-66
2023/09/28 16:02:37;;;;;;;;;;;24.10;89.60;;;;;;4958075;28;19906;-67
2023/09/28 16:05:03;;;;;;;;;;;24.00;89.30;;;;;;4955293;28;19929;-66
2023/09/28 16:07:28;;;;;;;;;;;24.10;90.00;;;;;;4955504;29;19907;-67
2023/09/28 16:09:54;;;;;;;;;;;24.00;89.00;;;;;;4954075;29;20372;-67
2023/09/28 16:12:19;;;;;;;;;;;23.90;89.00;;;;;;4955580;29;19910;-67
2023/09/28 16:14:45;;;;;;;;;;;23.80;89.40;;;;;;4955004;29;20392;-67
2023/09/28 16:17:11;;;;;;;;;;;23.70;90.00;;;;;;4955314;29;20002;-67
2023/09/28 16:19:36;;;;;;;;;;;23.70;89.40;;;;;;4954099;28;20361;-67
2023/09/28 16:22:02;;;;;;;;;;;23.70;90.00;;;;;;4955464;28;20414;-68
2023/09/28 16:24:27;;;;;;;;;;;23.60;90.30;;;;;;4992851;23;19948;-69
2023/09/28 16:26:53;;;;;;;;;;;23.50;90.50;;;;;;4993723;28;19913;-68
2023/09/28 16:29:20;;;;;;;;;;;23.50;90.60;;;;;;4994306;28;19912;-66
2023/09/28 16:31:46;;;;;;;;;;;23.40;90.90;;;;;;4976827;28;20372;-65
2023/09/28 16:34:12;;;;;;;;;;;23.30;91.10;;;;;;4971002;28;19929;-65
2023/09/28 16:36:37;;;;;;;;;;;23.20;91.20;;;;;;4975536;28;20320;-64
2023/09/28 16:39:03;;;;;;;;;;;23.20;91.40;;;;;;4974916;28;19953;-67
2023/09/28 16:41:28;;;;;;;;;;;23.10;91.60;;;;;;4974482;28;19957;-67
2023/09/28 16:43:54;;;;;;;;;;;23.00;91.80;;;;;;4957624;28;19909;-68
2023/09/28 16:46:21;;;;;;;;;;;22.90;91.90;;;;;;4957674;28;19917;-66
2023/09/28 16:48:47;;;;;;;;;;;22.90;92.10;;;;;;4975510;28;19906;-67
2023/09/28 16:51:12;;;;;;;;;;;22.90;92.20;;;;;;4974809;28;19913;-66
2023/09/28 16:53:38;;;;;;;;;;;22.80;92.50;;;;;;4975077;28;20361;-67
2023/09/28 16:56:03;;;;;;;;;;;22.70;92.70;;;;;;4974957;28;19913;-65
2023/09/28 16:58:30;;;;;;;;;;;22.60;92.70;;;;;;4974602;28;20257;-65
2023/09/28 17:00:57;;;;;;;;;;;22.60;93.00;;;;;;4957789;28;20347;-66
2023/09/28 17:03:22;;;;;;;;;;;22.50;93.10;;;;;;4976741;28;19906;-67
2023/09/28 17:05:48;;;;;;;;;;;22.50;93.30;;;;;;4960118;28;19956;-68
2023/09/28 17:08:13;;;;;;;;;;;22.40;93.40;;;;;;4977701;28;19913;-67
2023/09/28 17:10:39;;;;;;;;;;;22.30;93.30;;;;;;4975833;28;19906;-66
2023/09/28 17:13:04;;;;;;;;;;;22.30;93.70;;;;;;4975790;28;19956;-67
2023/09/28 17:15:30;;;;;;;;;;;22.20;93.90;;;;;;4974679;28;19910;-67
2023/09/28 17:17:55;;;;;;;;;;;22.20;94.30;;;;;;4974642;28;19913;-67
2023/09/28 17:20:21;;;;;;;;;;;22.10;94.30;;;;;;4974512;28;19910;-66
2023/09/28 17:22:47;;;;;;;;;;;22.10;94.40;;;;;;4974409;28;19914;-67
2023/09/28 17:25:12;;;;;;;;;;;22.10;94.90;;;;;;4975441;28;19914;-66
2023/09/28 17:27:38;;;;;;;;;;;22.00;95.40;;;;;;4976512;28;19906;-66
2023/09/28 17:30:10;;;;;;;;;;;21.90;96.10;;;;;;4976097;28;19906;-66
2023/09/28 17:32:36;;;;;;;;;;;21.90;96.30;;;;;;4976472;28;20049;-65
2023/09/28 17:35:01;;;;;;;;;;;21.80;96.50;;;;;;4959208;28;19910;-65
2023/09/28 17:37:27;;;;;;;;;;;21.80;96.60;;;;;;4959298;28;19957;-65
2023/09/28 17:39:52;;;;;;;;;;;21.80;96.70;;;;;;4958730;28;19917;-66
2023/09/28 17:42:18;;;;;;;;;;;21.70;96.70;;;;;;4976727;28;19906;-66
2023/09/28 17:44:43;;;;;;;;;;;21.70;96.80;;;;;;4976725;28;19906;-65
2023/09/28 17:47:09;;;;;;;;;;;21.60;97.00;;;;;;4976773;28;20382;-66
2023/09/28 17:49:35;;;;;;;;;;;21.50;97.10;;;;;;4976756;28;20332;-65
2023/09/28 17:52:00;;;;;;;;;;;21.50;97.30;;;;;;4976320;28;20284;-66
2023/09/28 17:54:25;;;;;;;;;;;21.40;97.50;;;;;;4958914;28;19913;-65
2023/09/28 17:56:51;;;;;;;;;;;21.40;97.80;;;;;;4976060;28;19906;-66
2023/09/28 17:59:16;;;;;;;;;;;21.40;98.00;;;;;;4976592;28;19910;-67
2023/09/28 18:01:43;;;;;;;;;;;21.40;98.30;;;;;;4958972;28;20429;-65
2023/09/28 18:04:08;;;;;;;;;;;21.30;98.60;;;;;;4976665;28;20420;-65
2023/09/28 18:06:34;;;;;;;;;;;21.30;98.80;;;;;;4976578;28;19906;-66
2023/09/28 18:08:59;;;;;;;;;;;21.20;99.00;;;;;;4968097;28;19909;-66
2023/09/28 18:11:25;;;;;;;;;;;21.30;99.80;;;;;;4967891;28;19953;-67